sensor_id;sensor_type;location;lat;lon;timestamp;temperature;humidity
34927;DHT22;21132;48.308;14.274;2022-07-29T00:00:45;25.10;43.80
34927;DHT22;21132;48.308;14.274;2022-07-29T00:03:12;25.00;44.10
34927;DHT22;21132;48.308;14.274;2022-07-29T00:05:39;25.00;44.10
34927;DHT22;21132;48.308;14.274;2022-07-29T00:08:06;25.00;44.50
34927;DHT22;21132;48.308;14.274;2022-07-29T00:10:32;25.00;44.80
34927;DHT22;21132;48.308;14.274;2022-07-29T00:12:59;25.00;45.10
34927;DHT22;21132;48.308;14.274;2022-07-29T00:15:24;24.90;45.10
34927;DHT22;21132;48.308;14.274;2022-07-29T00:17:50;24.90;45.40
34927;DHT22;21132;48.308;14.274;2022-07-29T00:20:16;24.90;45.40
34927;DHT22;21132;48.308;14.274;2022-07-29T00:22:43;24.90;45.70
34927;DHT22;21132;48.308;14.274;2022-07-29T00:25:09;24.80;46.30
34927;DHT22;21132;48.308;14.274;2022-07-29T00:27:35;24.80;46.40
34927;DHT22;21132;48.308;14.274;2022-07-29T00:30:03;24.80;47.00
34927;DHT22;21132;48.308;14.274;2022-07-29T00:32:29;24.80;47.30
34927;DHT22;21132;48.308;14.274;2022-07-29T00:34:55;24.70;46.80
34927;DHT22;21132;48.308;14.274;2022-07-29T00:37:39;24.70;47.00
34927;DHT22;21132;48.308;14.274;2022-07-29T00:40:05;24.70;46.70
34927;DHT22;21132;48.308;14.274;2022-07-29T00:42:48;24.70;46.70
34927;DHT22;21132;48.308;14.274;2022-07-29T00:45:15;24.60;46.80
34927;DHT22;21132;48.308;14.274;2022-07-29T00:47:41;24.70;46.90
34927;DHT22;21132;48.308;14.274;2022-07-29T00:50:09;24.60;48.00
34927;DHT22;21132;48.308;14.274;2022-07-29T00:52:37;24.50;48.60
34927;DHT22;21132;48.308;14.274;2022-07-29T00:55:05;24.50;49.20
34927;DHT22;21132;48.308;14.274;2022-07-29T00:57:32;24.40;49.10
34927;DHT22;21132;48.308;14.274;2022-07-29T00:59:58;24.40;49.00
34927;DHT22;21132;48.308;14.274;2022-07-29T01:02:24;24.40;48.90
34927;DHT22;21132;48.308;14.274;2022-07-29T01:04:50;24.40;48.70
34927;DHT22;21132;48.308;14.274;2022-07-29T01:07:17;24.40;48.50
34927;DHT22;21132;48.308;14.274;2022-07-29T01:09:44;24.40;49.00
34927;DHT22;21132;48.308;14.274;2022-07-29T01:12:12;24.30;48.80
34927;DHT22;21132;48.308;14.274;2022-07-29T01:14:39;24.30;49.20
34927;DHT22;21132;48.308;14.274;2022-07-29T01:20:46;24.30;49.20
34927;DHT22;21132;48.308;14.274;2022-07-29T01:28:45;24.20;50.30
34927;DHT22;21132;48.308;14.274;2022-07-29T01:31:16;24.20;50.90
34927;DHT22;21132;48.308;14.274;2022-07-29T01:33:50;24.20;50.40
34927;DHT22;21132;48.308;14.274;2022-07-29T01:36:27;24.20;50.40
34927;DHT22;21132;48.308;14.274;2022-07-29T01:39:07;24.20;50.20
34927;DHT22;21132;48.308;14.274;2022-07-29T01:41:37;24.20;50.60
34927;DHT22;21132;48.308;14.274;2022-07-29T01:44:13;24.20;50.60
34927;DHT22;21132;48.308;14.274;2022-07-29T01:46:46;24.20;50.40
34927;DHT22;21132;48.308;14.274;2022-07-29T01:49:17;24.20;50.50
34927;DHT22;21132;48.308;14.274;2022-07-29T01:52:21;24.20;50.60
34927;DHT22;21132;48.308;14.274;2022-07-29T01:54:57;24.20;50.60
34927;DHT22;21132;48.308;14.274;2022-07-29T01:57:29;24.20;50.40
34927;DHT22;21132;48.308;14.274;2022-07-29T01:59:57;24.30;50.50
34927;DHT22;21132;48.308;14.274;2022-07-29T02:02:24;24.30;50.40
34927;DHT22;21132;48.308;14.274;2022-07-29T02:04:53;24.20;50.00
34927;DHT22;21132;48.308;14.274;2022-07-29T02:07:21;24.20;50.10
34927;DHT22;21132;48.308;14.274;2022-07-29T02:09:50;24.20;50.20
34927;DHT22;21132;48.308;14.274;2022-07-29T02:12:19;24.20;50.40
34927;DHT22;21132;48.308;14.274;2022-07-29T02:14:48;24.20;50.30
34927;DHT22;21132;48.308;14.274;2022-07-29T02:17:19;24.20;50.10
34927;DHT22;21132;48.308;14.274;2022-07-29T02:19:47;24.20;50.10
34927;DHT22;21132;48.308;14.274;2022-07-29T02:22:14;24.20;50.20
34927;DHT22;21132;48.308;14.274;2022-07-29T02:24:42;24.20;49.80
34927;DHT22;21132;48.308;14.274;2022-07-29T02:27:08;24.20;49.70
34927;DHT22;21132;48.308;14.274;2022-07-29T02:29:35;24.20;49.60
34927;DHT22;21132;48.308;14.274;2022-07-29T02:32:03;24.20;49.50
34927;DHT22;21132;48.308;14.274;2022-07-29T02:34:30;24.20;49.40
34927;DHT22;21132;48.308;14.274;2022-07-29T02:36:56;24.20;49.40
34927;DHT22;21132;48.308;14.274;2022-07-29T02:39:23;24.20;49.40
34927;DHT22;21132;48.308;14.274;2022-07-29T02:41:59;24.20;49.40
34927;DHT22;21132;48.308;14.274;2022-07-29T02:44:26;24.20;49.20
34927;DHT22;21132;48.308;14.274;2022-07-29T02:47:13;24.20;49.00
34927;DHT22;21132;48.308;14.274;2022-07-29T02:49:49;24.10;49.10
34927;DHT22;21132;48.308;14.274;2022-07-29T02:52:26;24.10;49.00
34927;DHT22;21132;48.308;14.274;2022-07-29T02:54:54;24.10;49.10
34927;DHT22;21132;48.308;14.274;2022-07-29T02:57:31;24.10;48.70
34927;DHT22;21132;48.308;14.274;2022-07-29T03:00:04;24.10;49.10
34927;DHT22;21132;48.308;14.274;2022-07-29T03:02:34;24.00;49.10
34927;DHT22;21132;48.308;14.274;2022-07-29T03:05:03;24.00;49.30
34927;DHT22;21132;48.308;14.274;2022-07-29T03:07:29;23.90;49.20
34927;DHT22;21132;48.308;14.274;2022-07-29T03:09:56;23.90;49.40
34927;DHT22;21132;48.308;14.274;2022-07-29T03:12:23;23.90;49.70
34927;DHT22;21132;48.308;14.274;2022-07-29T03:14:50;23.80;49.60
34927;DHT22;21132;48.308;14.274;2022-07-29T03:17:17;23.80;49.70
34927;DHT22;21132;48.308;14.274;2022-07-29T03:19:43;23.80;49.80
34927;DHT22;21132;48.308;14.274;2022-07-29T03:22:09;23.80;50.00
34927;DHT22;21132;48.308;14.274;2022-07-29T03:24:36;23.80;50.20
34927;DHT22;21132;48.308;14.274;2022-07-29T03:27:03;23.80;50.10
34927;DHT22;21132;48.308;14.274;2022-07-29T03:29:30;23.80;50.20
34927;DHT22;21132;48.308;14.274;2022-07-29T03:31:55;23.80;50.20
34927;DHT22;21132;48.308;14.274;2022-07-29T03:34:21;23.80;50.40
34927;DHT22;21132;48.308;14.274;2022-07-29T03:36:48;23.80;50.70
34927;DHT22;21132;48.308;14.274;2022-07-29T03:39:18;23.80;50.30
34927;DHT22;21132;48.308;14.274;2022-07-29T03:41:46;23.80;50.60
34927;DHT22;21132;48.308;14.274;2022-07-29T03:44:13;23.80;50.40
34927;DHT22;21132;48.308;14.274;2022-07-29T03:46:44;23.80;50.30
34927;DHT22;21132;48.308;14.274;2022-07-29T03:49:12;23.80;50.50
34927;DHT22;21132;48.308;14.274;2022-07-29T03:51:40;23.80;50.50
34927;DHT22;21132;48.308;14.274;2022-07-29T03:54:06;23.80;50.30
34927;DHT22;21132;48.308;14.274;2022-07-29T03:56:34;23.80;50.20
34927;DHT22;21132;48.308;14.274;2022-07-29T03:59:02;23.80;50.40
34927;DHT22;21132;48.308;14.274;2022-07-29T04:01:29;23.80;50.40
34927;DHT22;21132;48.308;14.274;2022-07-29T04:03:56;23.70;50.50
34927;DHT22;21132;48.308;14.274;2022-07-29T04:06:22;23.80;50.40
34927;DHT22;21132;48.308;14.274;2022-07-29T04:08:48;23.80;50.50
34927;DHT22;21132;48.308;14.274;2022-07-29T04:11:13;23.80;50.60
34927;DHT22;21132;48.308;14.274;2022-07-29T04:13:39;23.80;50.70
34927;DHT22;21132;48.308;14.274;2022-07-29T04:16:05;23.80;50.90
34927;DHT22;21132;48.308;14.274;2022-07-29T04:18:31;23.90;51.00
34927;DHT22;21132;48.308;14.274;2022-07-29T04:20:57;23.90;51.20
34927;DHT22;21132;48.308;14.274;2022-07-29T04:23:26;23.90;51.10
34927;DHT22;21132;48.308;14.274;2022-07-29T04:25:52;23.90;51.20
34927;DHT22;21132;48.308;14.274;2022-07-29T04:28:18;23.90;51.10
34927;DHT22;21132;48.308;14.274;2022-07-29T04:30:43;24.00;51.00
34927;DHT22;21132;48.308;14.274;2022-07-29T04:33:09;24.00;51.50
34927;DHT22;21132;48.308;14.274;2022-07-29T04:35:38;24.10;50.80
34927;DHT22;21132;48.308;14.274;2022-07-29T04:38:05;24.10;50.70
34927;DHT22;21132;48.308;14.274;2022-07-29T04:40:32;24.10;50.30
34927;DHT22;21132;48.308;14.274;2022-07-29T04:42:59;24.20;50.40
34927;DHT22;21132;48.308;14.274;2022-07-29T04:45:26;24.30;50.10
34927;DHT22;21132;48.308;14.274;2022-07-29T04:47:51;24.30;50.00
34927;DHT22;21132;48.308;14.274;2022-07-29T04:50:17;24.30;49.70
34927;DHT22;21132;48.308;14.274;2022-07-29T04:52:43;24.40;49.90
34927;DHT22;21132;48.308;14.274;2022-07-29T04:55:09;24.40;49.80
34927;DHT22;21132;48.308;14.274;2022-07-29T04:57:35;24.40;49.60
34927;DHT22;21132;48.308;14.274;2022-07-29T05:00:01;24.50;49.60
34927;DHT22;21132;48.308;14.274;2022-07-29T05:02:27;24.50;49.50
34927;DHT22;21132;48.308;14.274;2022-07-29T05:04:52;24.50;49.50
34927;DHT22;21132;48.308;14.274;2022-07-29T05:07:18;24.40;49.50
34927;DHT22;21132;48.308;14.274;2022-07-29T05:09:44;24.50;49.70
34927;DHT22;21132;48.308;14.274;2022-07-29T05:12:10;24.50;49.70
34927;DHT22;21132;48.308;14.274;2022-07-29T05:14:36;24.50;49.80
34927;DHT22;21132;48.308;14.274;2022-07-29T05:17:02;24.40;49.80
34927;DHT22;21132;48.308;14.274;2022-07-29T05:19:27;24.40;49.80
34927;DHT22;21132;48.308;14.274;2022-07-29T05:21:53;24.50;49.70
34927;DHT22;21132;48.308;14.274;2022-07-29T05:24:19;24.50;49.70
34927;DHT22;21132;48.308;14.274;2022-07-29T05:26:45;24.50;49.70
34927;DHT22;21132;48.308;14.274;2022-07-29T05:29:11;24.60;49.70
34927;DHT22;21132;48.308;14.274;2022-07-29T05:31:36;24.60;49.60
34927;DHT22;21132;48.308;14.274;2022-07-29T05:34:02;24.70;49.80
34927;DHT22;21132;48.308;14.274;2022-07-29T05:36:28;24.80;50.00
34927;DHT22;21132;48.308;14.274;2022-07-29T05:38:54;24.80;49.90
34927;DHT22;21132;48.308;14.274;2022-07-29T05:41:19;24.90;49.80
34927;DHT22;21132;48.308;14.274;2022-07-29T05:43:46;25.00;49.60
34927;DHT22;21132;48.308;14.274;2022-07-29T05:46:11;25.10;49.40
34927;DHT22;21132;48.308;14.274;2022-07-29T05:48:37;25.20;49.20
34927;DHT22;21132;48.308;14.274;2022-07-29T05:51:04;25.20;49.20
34927;DHT22;21132;48.308;14.274;2022-07-29T05:53:30;25.30;49.10
34927;DHT22;21132;48.308;14.274;2022-07-29T05:55:56;25.40;49.00
34927;DHT22;21132;48.308;14.274;2022-07-29T05:58:22;25.50;48.40
34927;DHT22;21132;48.308;14.274;2022-07-29T06:00:48;25.50;48.00
34927;DHT22;21132;48.308;14.274;2022-07-29T06:03:15;25.60;47.70
34927;DHT22;21132;48.308;14.274;2022-07-29T06:05:41;25.60;47.90
34927;DHT22;21132;48.308;14.274;2022-07-29T06:08:06;25.70;48.30
34927;DHT22;21132;48.308;14.274;2022-07-29T06:10:34;25.70;48.30
34927;DHT22;21132;48.308;14.274;2022-07-29T06:13:00;25.80;48.40
34927;DHT22;21132;48.308;14.274;2022-07-29T06:15:26;25.90;48.10
34927;DHT22;21132;48.308;14.274;2022-07-29T06:17:52;26.00;48.10
34927;DHT22;21132;48.308;14.274;2022-07-29T06:20:18;26.10;48.10
34927;DHT22;21132;48.308;14.274;2022-07-29T06:22:44;26.20;47.60
34927;DHT22;21132;48.308;14.274;2022-07-29T06:25:10;26.30;46.90
34927;DHT22;21132;48.308;14.274;2022-07-29T06:27:37;26.40;46.50
34927;DHT22;21132;48.308;14.274;2022-07-29T06:30:03;26.50;46.10
34927;DHT22;21132;48.308;14.274;2022-07-29T06:32:32;26.60;46.30
34927;DHT22;21132;48.308;14.274;2022-07-29T06:34:58;26.70;46.20
34927;DHT22;21132;48.308;14.274;2022-07-29T06:37:23;26.90;46.00
34927;DHT22;21132;48.308;14.274;2022-07-29T06:39:49;27.00;45.70
34927;DHT22;21132;48.308;14.274;2022-07-29T06:42:35;27.10;44.90
34927;DHT22;21132;48.308;14.274;2022-07-29T06:45:01;27.20;45.00
34927;DHT22;21132;48.308;14.274;2022-07-29T06:47:27;27.30;44.70
34927;DHT22;21132;48.308;14.274;2022-07-29T06:49:53;27.40;44.30
34927;DHT22;21132;48.308;14.274;2022-07-29T06:52:19;27.50;43.50
34927;DHT22;21132;48.308;14.274;2022-07-29T06:54:45;27.50;43.10
34927;DHT22;21132;48.308;14.274;2022-07-29T06:57:13;27.60;43.10
34927;DHT22;21132;48.308;14.274;2022-07-29T06:59:39;27.60;41.90
34927;DHT22;21132;48.308;14.274;2022-07-29T07:02:05;27.60;42.50
34927;DHT22;21132;48.308;14.274;2022-07-29T07:04:31;27.70;42.30
34927;DHT22;21132;48.308;14.274;2022-07-29T07:06:57;27.80;42.10
34927;DHT22;21132;48.308;14.274;2022-07-29T07:09:24;27.80;42.00
34927;DHT22;21132;48.308;14.274;2022-07-29T07:11:50;27.90;40.80
34927;DHT22;21132;48.308;14.274;2022-07-29T07:14:15;27.90;41.70
34927;DHT22;21132;48.308;14.274;2022-07-29T07:16:41;27.90;41.30
34927;DHT22;21132;48.308;14.274;2022-07-29T07:19:07;27.90;41.40
34927;DHT22;21132;48.308;14.274;2022-07-29T07:21:33;27.90;41.10
34927;DHT22;21132;48.308;14.274;2022-07-29T07:23:59;27.90;41.50
34927;DHT22;21132;48.308;14.274;2022-07-29T07:26:26;27.90;41.50
34927;DHT22;21132;48.308;14.274;2022-07-29T07:28:52;28.00;41.10
34927;DHT22;21132;48.308;14.274;2022-07-29T07:31:18;27.90;41.00
34927;DHT22;21132;48.308;14.274;2022-07-29T07:33:44;27.90;41.00
34927;DHT22;21132;48.308;14.274;2022-07-29T07:36:10;27.90;41.20
34927;DHT22;21132;48.308;14.274;2022-07-29T07:38:36;27.90;41.30
34927;DHT22;21132;48.308;14.274;2022-07-29T07:41:02;27.90;40.00
34927;DHT22;21132;48.308;14.274;2022-07-29T07:43:28;27.80;40.10
34927;DHT22;21132;48.308;14.274;2022-07-29T07:45:53;27.80;40.80
34927;DHT22;21132;48.308;14.274;2022-07-29T07:48:19;27.70;41.40
34927;DHT22;21132;48.308;14.274;2022-07-29T07:50:45;27.70;41.50
34927;DHT22;21132;48.308;14.274;2022-07-29T07:53:11;27.70;41.70
34927;DHT22;21132;48.308;14.274;2022-07-29T07:55:41;27.60;41.80
34927;DHT22;21132;48.308;14.274;2022-07-29T07:58:08;27.60;41.90
34927;DHT22;21132;48.308;14.274;2022-07-29T08:00:34;27.70;41.90
34927;DHT22;21132;48.308;14.274;2022-07-29T08:03:00;27.70;41.80
34927;DHT22;21132;48.308;14.274;2022-07-29T08:05:25;27.80;42.10
34927;DHT22;21132;48.308;14.274;2022-07-29T08:07:51;27.90;42.00
34927;DHT22;21132;48.308;14.274;2022-07-29T08:10:18;27.90;42.10
34927;DHT22;21132;48.308;14.274;2022-07-29T08:13:08;27.90;42.20
34927;DHT22;21132;48.308;14.274;2022-07-29T08:15:35;27.90;41.90
34927;DHT22;21132;48.308;14.274;2022-07-29T08:18:01;27.90;41.70
34927;DHT22;21132;48.308;14.274;2022-07-29T08:20:27;28.00;41.80
34927;DHT22;21132;48.308;14.274;2022-07-29T08:22:53;27.90;41.60
34927;DHT22;21132;48.308;14.274;2022-07-29T08:25:19;28.00;41.60
34927;DHT22;21132;48.308;14.274;2022-07-29T08:27:49;28.00;41.30
34927;DHT22;21132;48.308;14.274;2022-07-29T08:30:14;28.00;40.90
34927;DHT22;21132;48.308;14.274;2022-07-29T08:32:40;28.00;40.60
34927;DHT22;21132;48.308;14.274;2022-07-29T08:35:08;28.00;41.00
34927;DHT22;21132;48.308;14.274;2022-07-29T08:37:34;28.00;41.10
34927;DHT22;21132;48.308;14.274;2022-07-29T08:40:00;28.00;40.50
34927;DHT22;21132;48.308;14.274;2022-07-29T08:42:25;28.10;40.50
34927;DHT22;21132;48.308;14.274;2022-07-29T08:44:51;28.10;40.50
34927;DHT22;21132;48.308;14.274;2022-07-29T08:47:19;28.10;40.50
34927;DHT22;21132;48.308;14.274;2022-07-29T08:49:44;28.10;40.80
34927;DHT22;21132;48.308;14.274;2022-07-29T08:52:12;28.10;40.50
34927;DHT22;21132;48.308;14.274;2022-07-29T08:54:40;28.00;40.40
34927;DHT22;21132;48.308;14.274;2022-07-29T08:57:09;28.00;40.60
34927;DHT22;21132;48.308;14.274;2022-07-29T08:59:37;28.00;40.30
34927;DHT22;21132;48.308;14.274;2022-07-29T09:02:10;28.00;41.30
34927;DHT22;21132;48.308;14.274;2022-07-29T09:04:38;28.10;41.20
34927;DHT22;21132;48.308;14.274;2022-07-29T09:07:04;28.00;40.40
34927;DHT22;21132;48.308;14.274;2022-07-29T09:09:33;28.10;40.20
34927;DHT22;21132;48.308;14.274;2022-07-29T09:11:59;28.10;40.60
34927;DHT22;21132;48.308;14.274;2022-07-29T09:14:25;28.10;40.70
34927;DHT22;21132;48.308;14.274;2022-07-29T09:16:55;28.20;41.00
34927;DHT22;21132;48.308;14.274;2022-07-29T09:19:25;28.30;41.00
34927;DHT22;21132;48.308;14.274;2022-07-29T09:21:51;28.30;40.50
34927;DHT22;21132;48.308;14.274;2022-07-29T09:24:47;28.40;40.70
34927;DHT22;21132;48.308;14.274;2022-07-29T09:27:21;28.60;40.70
34927;DHT22;21132;48.308;14.274;2022-07-29T09:29:59;28.70;40.50
34927;DHT22;21132;48.308;14.274;2022-07-29T09:32:25;28.90;40.40
34927;DHT22;21132;48.308;14.274;2022-07-29T09:35:18;29.00;40.00
34927;DHT22;21132;48.308;14.274;2022-07-29T09:37:45;29.20;40.00
34927;DHT22;21132;48.308;14.274;2022-07-29T09:40:12;29.40;39.90
34927;DHT22;21132;48.308;14.274;2022-07-29T09:42:38;29.60;39.60
34927;DHT22;21132;48.308;14.274;2022-07-29T09:45:05;29.80;39.30
34927;DHT22;21132;48.308;14.274;2022-07-29T09:47:47;29.90;38.70
34927;DHT22;21132;48.308;14.274;2022-07-29T09:50:15;30.10;38.30
34927;DHT22;21132;48.308;14.274;2022-07-29T09:52:49;30.30;37.40
34927;DHT22;21132;48.308;14.274;2022-07-29T09:55:17;30.40;37.60
34927;DHT22;21132;48.308;14.274;2022-07-29T09:57:43;30.60;37.70
34927;DHT22;21132;48.308;14.274;2022-07-29T10:00:14;30.80;37.20
34927;DHT22;21132;48.308;14.274;2022-07-29T10:02:43;30.90;36.90
34927;DHT22;21132;48.308;14.274;2022-07-29T10:05:24;31.00;36.50
34927;DHT22;21132;48.308;14.274;2022-07-29T10:07:57;31.20;36.60
34927;DHT22;21132;48.308;14.274;2022-07-29T10:10:26;31.30;36.00
34927;DHT22;21132;48.308;14.274;2022-07-29T10:12:56;31.40;35.90
34927;DHT22;21132;48.308;14.274;2022-07-29T10:15:25;31.40;35.80
34927;DHT22;21132;48.308;14.274;2022-07-29T10:17:52;31.60;35.40
34927;DHT22;21132;48.308;14.274;2022-07-29T10:20:20;31.60;35.20
34927;DHT22;21132;48.308;14.274;2022-07-29T10:22:50;31.80;35.20
34927;DHT22;21132;48.308;14.274;2022-07-29T10:25:18;31.90;34.80
34927;DHT22;21132;48.308;14.274;2022-07-29T10:27:45;32.00;34.60
34927;DHT22;21132;48.308;14.274;2022-07-29T10:30:12;32.10;35.00
34927;DHT22;21132;48.308;14.274;2022-07-29T10:38:55;32.30;34.10
34927;DHT22;21132;48.308;14.274;2022-07-29T10:44:21;32.40;33.30
34927;DHT22;21132;48.308;14.274;2022-07-29T10:46:48;32.30;32.90
34927;DHT22;21132;48.308;14.274;2022-07-29T10:49:18;32.20;32.80
34927;DHT22;21132;48.308;14.274;2022-07-29T10:52:05;32.20;33.40
34927;DHT22;21132;48.308;14.274;2022-07-29T10:54:44;32.00;33.70
34927;DHT22;21132;48.308;14.274;2022-07-29T10:57:23;31.90;33.30
34927;DHT22;21132;48.308;14.274;2022-07-29T11:05:16;31.60;33.30
34927;DHT22;21132;48.308;14.274;2022-07-29T11:10:39;31.40;34.10
34927;DHT22;21132;48.308;14.274;2022-07-29T11:13:05;31.40;34.10
34927;DHT22;21132;48.308;14.274;2022-07-29T11:15:54;31.30;34.50
34927;DHT22;21132;48.308;14.274;2022-07-29T11:18:20;31.20;34.70
34927;DHT22;21132;48.308;14.274;2022-07-29T11:20:48;31.20;35.00
34927;DHT22;21132;48.308;14.274;2022-07-29T11:23:30;31.20;35.10
34927;DHT22;21132;48.308;14.274;2022-07-29T11:26:17;31.20;35.30
34927;DHT22;21132;48.308;14.274;2022-07-29T11:31:41;31.30;35.00
34927;DHT22;21132;48.308;14.274;2022-07-29T11:34:22;31.20;35.40
34927;DHT22;21132;48.308;14.274;2022-07-29T11:39:39;31.40;35.50
34927;DHT22;21132;48.308;14.274;2022-07-29T11:45:12;31.50;35.40
34927;DHT22;21132;48.308;14.274;2022-07-29T11:47:53;31.50;35.20
34927;DHT22;21132;48.308;14.274;2022-07-29T11:50:36;31.60;34.60
34927;DHT22;21132;48.308;14.274;2022-07-29T11:53:10;31.60;34.70
34927;DHT22;21132;48.308;14.274;2022-07-29T11:55:38;31.70;34.80
34927;DHT22;21132;48.308;14.274;2022-07-29T11:58:04;31.70;34.20
34927;DHT22;21132;48.308;14.274;2022-07-29T12:00:33;31.80;34.20
34927;DHT22;21132;48.308;14.274;2022-07-29T12:03:07;31.80;34.20
34927;DHT22;21132;48.308;14.274;2022-07-29T12:05:35;31.90;34.40
34927;DHT22;21132;48.308;14.274;2022-07-29T12:08:11;32.00;34.90
34927;DHT22;21132;48.308;14.274;2022-07-29T12:10:38;32.00;33.90
34927;DHT22;21132;48.308;14.274;2022-07-29T12:13:05;32.10;33.70
34927;DHT22;21132;48.308;14.274;2022-07-29T12:15:31;32.20;33.20
34927;DHT22;21132;48.308;14.274;2022-07-29T12:17:57;32.20;33.20
34927;DHT22;21132;48.308;14.274;2022-07-29T12:20:28;32.20;33.50
34927;DHT22;21132;48.308;14.274;2022-07-29T12:22:55;32.30;33.70
34927;DHT22;21132;48.308;14.274;2022-07-29T12:25:22;32.40;33.40
34927;DHT22;21132;48.308;14.274;2022-07-29T12:28:01;32.40;33.00
34927;DHT22;21132;48.308;14.274;2022-07-29T12:30:47;32.50;32.90
34927;DHT22;21132;48.308;14.274;2022-07-29T12:33:25;32.50;32.60
34927;DHT22;21132;48.308;14.274;2022-07-29T12:36:00;32.40;33.00
34927;DHT22;21132;48.308;14.274;2022-07-29T12:38:26;32.40;32.20
34927;DHT22;21132;48.308;14.274;2022-07-29T12:40:53;32.50;32.20
34927;DHT22;21132;48.308;14.274;2022-07-29T12:43:21;32.40;32.40
34927;DHT22;21132;48.308;14.274;2022-07-29T12:45:49;32.40;31.60
34927;DHT22;21132;48.308;14.274;2022-07-29T12:48:39;32.40;31.50
34927;DHT22;21132;48.308;14.274;2022-07-29T12:51:06;32.40;31.60
34927;DHT22;21132;48.308;14.274;2022-07-29T12:53:33;32.40;31.10
34927;DHT22;21132;48.308;14.274;2022-07-29T12:55:59;32.30;31.00
34927;DHT22;21132;48.308;14.274;2022-07-29T13:03:25;32.30;30.30
34927;DHT22;21132;48.308;14.274;2022-07-29T13:05:51;32.20;29.40
34927;DHT22;21132;48.308;14.274;2022-07-29T13:08:17;32.20;29.70
34927;DHT22;21132;48.308;14.274;2022-07-29T13:10:46;32.20;30.10
34927;DHT22;21132;48.308;14.274;2022-07-29T13:13:13;32.20;30.00
34927;DHT22;21132;48.308;14.274;2022-07-29T13:15:45;32.30;30.10
34927;DHT22;21132;48.308;14.274;2022-07-29T13:18:28;32.30;29.90
34927;DHT22;21132;48.308;14.274;2022-07-29T13:20:55;32.30;30.30
34927;DHT22;21132;48.308;14.274;2022-07-29T13:23:21;32.40;30.50
34927;DHT22;21132;48.308;14.274;2022-07-29T13:25:46;32.40;30.50
34927;DHT22;21132;48.308;14.274;2022-07-29T13:28:12;32.50;30.80
34927;DHT22;21132;48.308;14.274;2022-07-29T13:30:39;32.50;30.10
34927;DHT22;21132;48.308;14.274;2022-07-29T13:33:06;32.50;29.30
34927;DHT22;21132;48.308;14.274;2022-07-29T13:35:32;32.40;29.30
34927;DHT22;21132;48.308;14.274;2022-07-29T13:37:58;32.50;29.70
34927;DHT22;21132;48.308;14.274;2022-07-29T13:40:23;32.60;29.50
34927;DHT22;21132;48.308;14.274;2022-07-29T13:42:49;32.80;29.80
34927;DHT22;21132;48.308;14.274;2022-07-29T13:45:15;33.10;29.30
34927;DHT22;21132;48.308;14.274;2022-07-29T13:47:41;33.40;28.80
34927;DHT22;21132;48.308;14.274;2022-07-29T13:50:08;33.80;28.50
34927;DHT22;21132;48.308;14.274;2022-07-29T13:52:36;34.20;28.50
34927;DHT22;21132;48.308;14.274;2022-07-29T13:55:03;34.70;27.90
34927;DHT22;21132;48.308;14.274;2022-07-29T13:57:29;35.20;27.00
34927;DHT22;21132;48.308;14.274;2022-07-29T13:59:56;35.60;26.40
34927;DHT22;21132;48.308;14.274;2022-07-29T14:02:22;36.00;24.80
34927;DHT22;21132;48.308;14.274;2022-07-29T14:04:48;36.40;25.30
34927;DHT22;21132;48.308;14.274;2022-07-29T14:07:14;36.80;25.10
34927;DHT22;21132;48.308;14.274;2022-07-29T14:09:39;37.30;24.90
34927;DHT22;21132;48.308;14.274;2022-07-29T14:12:05;37.80;25.40
34927;DHT22;21132;48.308;14.274;2022-07-29T14:14:31;38.40;25.10
34927;DHT22;21132;48.308;14.274;2022-07-29T14:16:58;39.00;24.90
34927;DHT22;21132;48.308;14.274;2022-07-29T14:19:24;39.60;23.80
34927;DHT22;21132;48.308;14.274;2022-07-29T14:21:50;40.20;23.70
34927;DHT22;21132;48.308;14.274;2022-07-29T14:24:16;40.90;23.70
34927;DHT22;21132;48.308;14.274;2022-07-29T14:26:42;41.60;22.90
34927;DHT22;21132;48.308;14.274;2022-07-29T14:29:08;42.20;22.10
34927;DHT22;21132;48.308;14.274;2022-07-29T14:31:33;42.70;21.60
34927;DHT22;21132;48.308;14.274;2022-07-29T14:33:59;43.30;20.90
34927;DHT22;21132;48.308;14.274;2022-07-29T14:36:25;43.80;20.20
34927;DHT22;21132;48.308;14.274;2022-07-29T14:38:51;44.20;19.60
34927;DHT22;21132;48.308;14.274;2022-07-29T14:41:16;44.60;19.90
34927;DHT22;21132;48.308;14.274;2022-07-29T14:43:42;45.00;20.10
34927;DHT22;21132;48.308;14.274;2022-07-29T14:46:08;45.40;19.40
34927;DHT22;21132;48.308;14.274;2022-07-29T14:48:34;45.80;19.30
34927;DHT22;21132;48.308;14.274;2022-07-29T14:51:00;46.20;18.80
34927;DHT22;21132;48.308;14.274;2022-07-29T14:53:26;46.40;18.10
34927;DHT22;21132;48.308;14.274;2022-07-29T14:55:51;46.80;18.10
34927;DHT22;21132;48.308;14.274;2022-07-29T14:58:17;47.00;18.00
34927;DHT22;21132;48.308;14.274;2022-07-29T15:00:43;47.20;17.30
34927;DHT22;21132;48.308;14.274;2022-07-29T15:03:09;47.40;17.10
34927;DHT22;21132;48.308;14.274;2022-07-29T15:05:35;47.60;16.70
34927;DHT22;21132;48.308;14.274;2022-07-29T15:08:02;47.90;16.40
34927;DHT22;21132;48.308;14.274;2022-07-29T15:10:28;48.10;16.30
34927;DHT22;21132;48.308;14.274;2022-07-29T15:12:54;48.30;15.90
34927;DHT22;21132;48.308;14.274;2022-07-29T15:15:20;48.30;15.70
34927;DHT22;21132;48.308;14.274;2022-07-29T15:17:47;48.50;15.70
34927;DHT22;21132;48.308;14.274;2022-07-29T15:20:12;48.50;15.60
34927;DHT22;21132;48.308;14.274;2022-07-29T15:22:39;48.70;15.50
34927;DHT22;21132;48.308;14.274;2022-07-29T15:25:06;48.80;15.30
34927;DHT22;21132;48.308;14.274;2022-07-29T15:27:32;48.90;15.30
34927;DHT22;21132;48.308;14.274;2022-07-29T15:29:58;49.10;14.90
34927;DHT22;21132;48.308;14.274;2022-07-29T15:32:24;49.20;14.70
34927;DHT22;21132;48.308;14.274;2022-07-29T15:34:50;49.40;14.40
34927;DHT22;21132;48.308;14.274;2022-07-29T15:37:16;49.50;14.20
34927;DHT22;21132;48.308;14.274;2022-07-29T15:39:42;49.50;14.60
34927;DHT22;21132;48.308;14.274;2022-07-29T15:42:07;49.60;14.00
34927;DHT22;21132;48.308;14.274;2022-07-29T15:44:33;49.80;14.10
34927;DHT22;21132;48.308;14.274;2022-07-29T15:46:59;49.80;13.90
34927;DHT22;21132;48.308;14.274;2022-07-29T15:49:39;49.90;13.60
34927;DHT22;21132;48.308;14.274;2022-07-29T15:52:09;49.90;14.00
34927;DHT22;21132;48.308;14.274;2022-07-29T15:54:38;49.90;13.70
34927;DHT22;21132;48.308;14.274;2022-07-29T15:57:04;49.90;13.50
34927;DHT22;21132;48.308;14.274;2022-07-29T15:59:30;49.90;13.70
34927;DHT22;21132;48.308;14.274;2022-07-29T16:01:57;50.00;13.40